QACF1 LIMC-OBBI
Flight info
| Callsign | QACF1 |
|---|---|
| Flight time | 5h 6m |
| Altitude | 35000 |
| Route | ROBAS DCT EKPAL DCT TINKU DCT DIVKU DCT NOSTO DCT TRL UM601 EKTOS/N0482F370 UM601 MIL DCT GUDIS DCT KAVOS DCT EVORA DCT LAKTO L560 SERMA L550 KARIK B411 DEESA Y415 TAMRO N318 NADEN/N0441F210 N318 LADNA |
| Aircraft | B77L/H-SDE1E2E3FGHIJ2J3J4J5M1RWXY/LB1D1 |
Departure
| Time | 2026-02-17 04:34 |
|---|---|
| Airport | Milan Malpensa International Airport (LIMC) |
Arrival
| Time | 2026-02-17 09:40 |
|---|---|
| Airport | Bahrain International Airport (OBBI) |
| Time | Latitude | Longitude | Altitude | Speed | Heading |
|---|---|---|---|---|---|
| 2026-02-17 04:12 | 45.61426 | 8.72035 | 720 ft | 0 kts | 259° |
| 2026-02-17 04:21 | 45.61426 | 8.72040 | 720 ft | 2 kts | 260° |
| 2026-02-17 04:21 | 45.61428 | 8.72062 | 720 ft | 2 kts | 272° |
| 2026-02-17 04:22 | 45.61426 | 8.72083 | 720 ft | 2 kts | 281° |
| 2026-02-17 04:22 | 45.61422 | 8.72103 | 720 ft | 2 kts | 290° |
| 2026-02-17 04:22 | 45.61416 | 8.72123 | 719 ft | 2 kts | 300° |
| 2026-02-17 04:23 | 45.61398 | 8.72156 | 717 ft | 2 kts | 319° |
| 2026-02-17 04:23 | 45.61386 | 8.72169 | 716 ft | 2 kts | 328° |
| 2026-02-17 04:23 | 45.61373 | 8.72180 | 716 ft | 2 kts | 338° |
| 2026-02-17 04:23 | 45.61359 | 8.72187 | 715 ft | 2 kts | 347° |
| 2026-02-17 04:24 | 45.61349 | 8.72189 | 714 ft | 0 kts | 351° |
| 2026-02-17 04:26 | 45.61350 | 8.72189 | 714 ft | 0 kts | 352° |
| 2026-02-17 04:26 | 45.61357 | 8.72194 | 714 ft | 3 kts | 32° |
| 2026-02-17 04:27 | 45.61382 | 8.72269 | 714 ft | 2 kts | 76° |
| 2026-02-17 04:27 | 45.61383 | 8.72276 | 714 ft | 1 kts | 78° |
| 2026-02-17 04:27 | 45.61392 | 8.72328 | 713 ft | 8 kts | 76° |
| 2026-02-17 04:27 | 45.61384 | 8.72419 | 711 ft | 10 kts | 124° |
| 2026-02-17 04:28 | 45.61322 | 8.72504 | 707 ft | 13 kts | 152° |
| 2026-02-17 04:28 | 45.61223 | 8.72536 | 705 ft | 15 kts | 169° |
| 2026-02-17 04:28 | 45.61128 | 8.72562 | 702 ft | 11 kts | 168° |
| 2026-02-17 04:28 | 45.61080 | 8.72646 | 699 ft | 12 kts | 89° |
| 2026-02-17 04:29 | 45.61093 | 8.72771 | 699 ft | 12 kts | 81° |
| 2026-02-17 04:29 | 45.61109 | 8.72892 | 698 ft | 12 kts | 78° |
| 2026-02-17 04:29 | 45.61128 | 8.73019 | 697 ft | 13 kts | 76° |
| 2026-02-17 04:29 | 45.61191 | 8.73106 | 696 ft | 12 kts | 32° |
| 2026-02-17 04:30 | 45.61264 | 8.73174 | 696 ft | 11 kts | 33° |
| 2026-02-17 04:30 | 45.61327 | 8.73235 | 697 ft | 10 kts | 35° |
| 2026-02-17 04:30 | 45.61385 | 8.73271 | 700 ft | 9 kts | 5° |
| 2026-02-17 04:31 | 45.61551 | 8.73228 | 704 ft | 10 kts | 348° |
| 2026-02-17 04:31 | 45.61605 | 8.73237 | 705 ft | 6 kts | 49° |
| 2026-02-17 04:31 | 45.61625 | 8.73322 | 704 ft | 12 kts | 77° |
| 2026-02-17 04:31 | 45.61630 | 8.73437 | 703 ft | 11 kts | 112° |
| 2026-02-17 04:32 | 45.61593 | 8.73542 | 703 ft | 11 kts | 103° |
| 2026-02-17 04:32 | 45.61589 | 8.73647 | 703 ft | 5 kts | 80° |
| 2026-02-17 04:32 | 45.61597 | 8.73698 | 703 ft | 4 kts | 78° |
| 2026-02-17 04:32 | 45.61604 | 8.73723 | 704 ft | 1 kts | 48° |
| 2026-02-17 04:33 | 45.61609 | 8.73728 | 704 ft | 0 kts | 29° |
| 2026-02-17 04:33 | 45.61621 | 8.73732 | 705 ft | 4 kts | 9° |
| 2026-02-17 04:33 | 45.61682 | 8.73721 | 706 ft | 16 kts | 348° |
| 2026-02-17 04:33 | 45.61981 | 8.73639 | 713 ft | 85 kts | 349° |
| 2026-02-17 04:34 | 45.62870 | 8.73392 | 734 ft | 170 kts | 349° |
| 2026-02-17 04:34 | 45.64096 | 8.73049 | 1673 ft | 181 kts | 348° |
| 2026-02-17 04:34 | 45.65246 | 8.72814 | 2921 ft | 172 kts | 353° |
| 2026-02-17 04:35 | 45.67889 | 8.72684 | 4192 ft | 211 kts | 358° |
| 2026-02-17 04:35 | 45.69398 | 8.72650 | 5111 ft | 220 kts | 358° |
| 2026-02-17 04:35 | 45.70908 | 8.72614 | 6158 ft | 222 kts | 358° |
| 2026-02-17 04:35 | 45.72404 | 8.72298 | 7117 ft | 225 kts | 338° |
| 2026-02-17 04:36 | 45.73688 | 8.71009 | 8017 ft | 231 kts | 310° |
| 2026-02-17 04:36 | 45.74355 | 8.68986 | 9113 ft | 232 kts | 283° |
| 2026-02-17 04:36 | 45.74266 | 8.66679 | 10047 ft | 243 kts | 256° |
| 2026-02-17 04:36 | 45.73473 | 8.64516 | 10879 ft | 254 kts | 244° |
| 2026-02-17 04:37 | 45.72506 | 8.62416 | 11798 ft | 256 kts | 244° |
| 2026-02-17 04:37 | 45.71517 | 8.60316 | 12634 ft | 259 kts | 244° |
| 2026-02-17 04:37 | 45.70519 | 8.58102 | 13292 ft | 271 kts | 248° |
| 2026-02-17 04:37 | 45.69514 | 8.55743 | 13744 ft | 291 kts | 248° |
| 2026-02-17 04:38 | 45.68267 | 8.53310 | 14088 ft | 323 kts | 233° |
| 2026-02-17 04:38 | 45.66445 | 8.51177 | 14643 ft | 349 kts | 221° |
| 2026-02-17 04:38 | 45.64275 | 8.49372 | 15108 ft | 375 kts | 212° |
| 2026-02-17 04:39 | 45.59004 | 8.47189 | 16196 ft | 421 kts | 191° |
| 2026-02-17 04:39 | 45.56027 | 8.47128 | 17166 ft | 432 kts | 179° |
| 2026-02-17 04:39 | 45.53036 | 8.47811 | 18001 ft | 443 kts | 168° |
| 2026-02-17 04:39 | 45.50094 | 8.49266 | 18741 ft | 455 kts | 155° |
| 2026-02-17 04:40 | 45.47298 | 8.51552 | 19588 ft | 460 kts | 143° |
| 2026-02-17 04:40 | 45.44894 | 8.54485 | 20387 ft | 462 kts | 131° |
| 2026-02-17 04:40 | 45.42862 | 8.58064 | 21045 ft | 467 kts | 119° |
| 2026-02-17 04:40 | 45.41341 | 8.62138 | 21700 ft | 467 kts | 107° |
| 2026-02-17 04:41 | 45.40378 | 8.66494 | 22401 ft | 466 kts | 96° |
| 2026-02-17 04:41 | 45.39543 | 8.71001 | 23159 ft | 477 kts | 102° |
| 2026-02-17 04:41 | 45.38190 | 8.75329 | 24118 ft | 485 kts | 113° |
| 2026-02-17 04:41 | 45.36324 | 8.79335 | 24831 ft | 496 kts | 124° |
| 2026-02-17 04:42 | 45.33937 | 8.82967 | 25204 ft | 512 kts | 135° |
| 2026-02-17 04:42 | 45.31161 | 8.86239 | 25471 ft | 528 kts | 140° |
| 2026-02-17 04:42 | 45.28270 | 8.89489 | 26224 ft | 529 kts | 140° |
| 2026-02-17 04:43 | 45.22466 | 8.95987 | 27252 ft | 542 kts | 140° |
| 2026-02-17 04:43 | 45.19436 | 8.99373 | 27716 ft | 551 kts | 141° |
| 2026-02-17 04:43 | 45.16449 | 9.02705 | 28299 ft | 556 kts | 140° |
| 2026-02-17 04:43 | 45.13397 | 9.06105 | 28820 ft | 563 kts | 141° |
| 2026-02-17 04:44 | 45.10266 | 9.09589 | 29280 ft | 571 kts | 141° |
| 2026-02-17 04:44 | 45.07113 | 9.13091 | 29700 ft | 580 kts | 141° |
| 2026-02-17 04:44 | 45.03914 | 9.16639 | 30164 ft | 588 kts | 140° |
| 2026-02-17 04:44 | 45.00691 | 9.20207 | 30735 ft | 592 kts | 140° |
| 2026-02-17 04:45 | 44.97474 | 9.23765 | 31469 ft | 591 kts | 141° |
| 2026-02-17 04:45 | 44.94253 | 9.27321 | 32192 ft | 588 kts | 141° |
| 2026-02-17 04:45 | 44.91024 | 9.30880 | 32818 ft | 587 kts | 140° |
| 2026-02-17 04:45 | 44.87783 | 9.34448 | 33316 ft | 587 kts | 140° |
| 2026-02-17 04:46 | 44.84570 | 9.37981 | 33893 ft | 587 kts | 141° |
| 2026-02-17 04:46 | 44.81378 | 9.41484 | 34428 ft | 590 kts | 141° |
| 2026-02-17 04:46 | 44.78114 | 9.45061 | 34671 ft | 589 kts | 141° |
| 2026-02-17 04:47 | 44.71699 | 9.52078 | 34675 ft | 583 kts | 141° |
| 2026-02-17 04:47 | 44.65302 | 9.59053 | 34674 ft | 578 kts | 141° |
| 2026-02-17 04:48 | 44.58884 | 9.66031 | 34679 ft | 586 kts | 141° |
| 2026-02-17 04:48 | 44.52477 | 9.72978 | 34658 ft | 582 kts | 142° |
| 2026-02-17 04:49 | 44.46045 | 9.79932 | 34662 ft | 584 kts | 142° |
| 2026-02-17 04:49 | 44.39650 | 9.86827 | 34692 ft | 584 kts | 142° |
| 2026-02-17 04:50 | 44.33156 | 9.93808 | 34652 ft | 581 kts | 142° |
| 2026-02-17 04:50 | 44.26755 | 10.00670 | 34661 ft | 581 kts | 142° |
| 2026-02-17 04:51 | 44.17203 | 10.10874 | 34666 ft | 579 kts | 142° |
| 2026-02-17 04:51 | 44.10797 | 10.17693 | 34653 ft | 579 kts | 142° |
| 2026-02-17 04:52 | 44.04451 | 10.24429 | 34653 ft | 578 kts | 142° |
| 2026-02-17 04:52 | 43.98067 | 10.31187 | 34534 ft | 579 kts | 142° |
| 2026-02-17 04:53 | 43.94861 | 10.34575 | 34749 ft | 583 kts | 142° |
| 2026-02-17 04:53 | 43.91635 | 10.37978 | 34642 ft | 583 kts | 142° |
| 2026-02-17 04:53 | 43.85214 | 10.44737 | 34650 ft | 576 kts | 142° |
| 2026-02-17 04:54 | 43.78910 | 10.51674 | 34655 ft | 579 kts | 134° |
| 2026-02-17 04:55 | 43.71968 | 10.64864 | 34652 ft | 569 kts | 112° |
| 2026-02-17 04:55 | 43.68261 | 10.74471 | 34634 ft | 565 kts | 114° |
| 2026-02-17 04:56 | 43.64516 | 10.84107 | 34659 ft | 566 kts | 114° |
| 2026-02-17 04:56 | 43.60774 | 10.93659 | 34652 ft | 567 kts | 114° |
| 2026-02-17 04:57 | 43.57026 | 11.03168 | 34638 ft | 564 kts | 115° |
| 2026-02-17 04:57 | 43.53301 | 11.12571 | 34638 ft | 562 kts | 115° |
| 2026-02-17 04:58 | 43.49555 | 11.21992 | 34618 ft | 563 kts | 114° |
| 2026-02-17 04:58 | 43.45782 | 11.31442 | 34631 ft | 563 kts | 115° |
| 2026-02-17 04:59 | 43.40130 | 11.45539 | 34652 ft | 564 kts | 114° |
| 2026-02-17 04:59 | 43.36337 | 11.54956 | 34656 ft | 563 kts | 115° |
| 2026-02-17 05:00 | 43.32543 | 11.64347 | 34622 ft | 562 kts | 115° |
| 2026-02-17 05:00 | 43.28752 | 11.73698 | 34620 ft | 561 kts | 116° |
| 2026-02-17 05:01 | 43.24991 | 11.82942 | 34652 ft | 555 kts | 116° |
| 2026-02-17 05:01 | 43.21197 | 11.92244 | 34669 ft | 560 kts | 116° |
| 2026-02-17 05:02 | 43.17413 | 12.01486 | 34620 ft | 555 kts | 116° |
| 2026-02-17 05:03 | 43.11702 | 12.15383 | 34630 ft | 562 kts | 116° |
| 2026-02-17 05:03 | 43.07892 | 12.24615 | 34645 ft | 559 kts | 116° |
| 2026-02-17 05:04 | 43.04072 | 12.33841 | 34623 ft | 557 kts | 117° |
| 2026-02-17 05:04 | 43.00265 | 12.43010 | 34629 ft | 557 kts | 117° |
| 2026-02-17 05:05 | 42.96429 | 12.52217 | 34638 ft | 553 kts | 117° |
| 2026-02-17 05:05 | 42.92608 | 12.61359 | 34643 ft | 555 kts | 116° |
| 2026-02-17 05:06 | 42.88788 | 12.70473 | 34615 ft | 554 kts | 118° |
| 2026-02-17 05:06 | 42.84983 | 12.79516 | 34629 ft | 549 kts | 117° |
| 2026-02-17 05:07 | 42.79269 | 12.93051 | 34608 ft | 544 kts | 117° |
| 2026-02-17 05:07 | 42.75469 | 13.02020 | 34583 ft | 549 kts | 118° |
| 2026-02-17 05:08 | 42.71639 | 13.11029 | 34567 ft | 548 kts | 118° |
| 2026-02-17 05:08 | 42.67823 | 13.19979 | 34550 ft | 552 kts | 118° |
| 2026-02-17 05:09 | 42.63962 | 13.29007 | 34559 ft | 553 kts | 118° |
| 2026-02-17 05:09 | 42.60104 | 13.37998 | 34552 ft | 550 kts | 118° |
| 2026-02-17 05:10 | 42.56255 | 13.46941 | 34550 ft | 546 kts | 118° |
| 2026-02-17 05:11 | 42.50509 | 13.60243 | 34550 ft | 545 kts | 118° |
| 2026-02-17 05:11 | 42.46682 | 13.69069 | 34565 ft | 548 kts | 119° |
| 2026-02-17 05:12 | 42.42839 | 13.77904 | 34575 ft | 546 kts | 119° |
| 2026-02-17 05:12 | 42.38984 | 13.86743 | 34577 ft | 546 kts | 119° |
| 2026-02-17 05:13 | 42.35130 | 13.95551 | 34584 ft | 543 kts | 119° |
| 2026-02-17 05:13 | 42.31282 | 14.04319 | 34609 ft | 543 kts | 119° |
| 2026-02-17 05:14 | 42.27408 | 14.13123 | 34603 ft | 545 kts | 119° |
| 2026-02-17 05:14 | 42.23556 | 14.21850 | 34593 ft | 544 kts | 119° |
| 2026-02-17 05:15 | 42.17726 | 14.35008 | 34584 ft | 544 kts | 119° |
| 2026-02-17 05:15 | 42.13846 | 14.43735 | 34573 ft | 545 kts | 120° |
| 2026-02-17 05:16 | 42.09939 | 14.52494 | 34565 ft | 546 kts | 120° |
| 2026-02-17 05:16 | 42.06056 | 14.61174 | 34574 ft | 544 kts | 119° |
| 2026-02-17 05:17 | 42.02132 | 14.69922 | 34553 ft | 547 kts | 121° |
| 2026-02-17 05:17 | 41.98218 | 14.78622 | 34537 ft | 544 kts | 121° |
| 2026-02-17 05:18 | 41.94281 | 14.87347 | 34523 ft | 548 kts | 121° |
| 2026-02-17 05:19 | 41.88383 | 15.00372 | 34517 ft | 550 kts | 121° |
| 2026-02-17 05:19 | 41.84418 | 15.09094 | 34527 ft | 546 kts | 121° |
| 2026-02-17 05:20 | 41.80498 | 15.17694 | 34528 ft | 545 kts | 121° |
| 2026-02-17 05:20 | 41.76570 | 15.26288 | 34535 ft | 543 kts | 121° |
| 2026-02-17 05:21 | 41.72612 | 15.34920 | 34529 ft | 548 kts | 121° |
| 2026-02-17 05:21 | 41.66655 | 15.47869 | 34523 ft | 546 kts | 121° |
| 2026-02-17 05:22 | 41.62687 | 15.56462 | 34515 ft | 544 kts | 121° |
| 2026-02-17 05:23 | 41.56720 | 15.69341 | 34501 ft | 542 kts | 122° |
| 2026-02-17 05:23 | 41.52759 | 15.77858 | 34514 ft | 540 kts | 122° |
| 2026-02-17 05:24 | 41.48764 | 15.86200 | 34513 ft | 540 kts | 124° |
| 2026-02-17 05:24 | 41.44531 | 15.94570 | 34510 ft | 538 kts | 124° |
| 2026-02-17 05:25 | 41.40359 | 16.02786 | 34519 ft | 540 kts | 124° |
| 2026-02-17 05:25 | 41.36151 | 16.11048 | 34502 ft | 536 kts | 124° |
| 2026-02-17 05:26 | 41.31964 | 16.19245 | 34465 ft | 537 kts | 124° |
| 2026-02-17 05:26 | 41.27788 | 16.27400 | 34487 ft | 539 kts | 124° |
| 2026-02-17 05:27 | 41.21449 | 16.39737 | 34480 ft | 537 kts | 124° |
| 2026-02-17 05:27 | 41.17271 | 16.47842 | 34485 ft | 536 kts | 124° |
| 2026-02-17 05:28 | 41.13034 | 16.56038 | 34504 ft | 540 kts | 124° |
| 2026-02-17 05:28 | 41.08805 | 16.64198 | 34497 ft | 539 kts | 125° |
| 2026-02-17 05:29 | 41.04544 | 16.72397 | 34482 ft | 539 kts | 126° |
| 2026-02-17 05:29 | 41.00305 | 16.80533 | 34483 ft | 538 kts | 126° |
| 2026-02-17 05:30 | 40.96073 | 16.88633 | 34495 ft | 538 kts | 126° |
| 2026-02-17 05:31 | 40.89674 | 17.00843 | 34488 ft | 536 kts | 126° |
| 2026-02-17 05:31 | 40.85440 | 17.08893 | 34497 ft | 540 kts | 126° |
| 2026-02-17 05:32 | 40.81176 | 17.16982 | 34487 ft | 537 kts | 126° |
| 2026-02-17 05:32 | 40.76890 | 17.25089 | 34477 ft | 538 kts | 126° |
| 2026-02-17 05:33 | 40.72583 | 17.33216 | 34464 ft | 539 kts | 126° |
| 2026-02-17 05:33 | 40.68322 | 17.41235 | 34469 ft | 540 kts | 126° |
| 2026-02-17 05:34 | 40.64017 | 17.49316 | 34446 ft | 535 kts | 126° |
| 2026-02-17 05:34 | 40.59715 | 17.57369 | 34460 ft | 539 kts | 126° |
| 2026-02-17 05:35 | 40.53265 | 17.69406 | 34458 ft | 534 kts | 127° |
| 2026-02-17 05:35 | 40.48989 | 17.77360 | 34469 ft | 537 kts | 127° |
| 2026-02-17 05:36 | 40.44696 | 17.85325 | 34466 ft | 538 kts | 127° |
| 2026-02-17 05:36 | 40.40393 | 17.93290 | 34475 ft | 535 kts | 127° |
| 2026-02-17 05:37 | 40.36084 | 18.01243 | 34474 ft | 536 kts | 127° |
| 2026-02-17 05:37 | 40.31747 | 18.09229 | 34492 ft | 538 kts | 127° |
| 2026-02-17 05:38 | 40.27465 | 18.17095 | 34487 ft | 533 kts | 127° |
| 2026-02-17 05:39 | 40.20965 | 18.28995 | 34498 ft | 533 kts | 127° |
| 2026-02-17 05:39 | 40.16640 | 18.36888 | 34491 ft | 532 kts | 127° |
| 2026-02-17 05:40 | 40.12309 | 18.44772 | 34487 ft | 538 kts | 127° |
| 2026-02-17 05:40 | 40.07996 | 18.52605 | 34477 ft | 534 kts | 127° |
| 2026-02-17 05:41 | 40.03655 | 18.60468 | 34469 ft | 533 kts | 127° |
| 2026-02-17 05:41 | 39.99321 | 18.68299 | 34462 ft | 532 kts | 128° |
| 2026-02-17 05:42 | 39.94996 | 18.76095 | 34467 ft | 534 kts | 128° |
| 2026-02-17 05:42 | 39.90635 | 18.83936 | 34475 ft | 533 kts | 128° |
| 2026-02-17 05:43 | 39.84125 | 18.95605 | 34452 ft | 530 kts | 128° |
| 2026-02-17 05:43 | 39.79476 | 19.03169 | 34472 ft | 538 kts | 134° |
| 2026-02-17 05:44 | 39.74543 | 19.10383 | 34477 ft | 533 kts | 135° |
| 2026-02-17 05:44 | 39.69617 | 19.17553 | 34484 ft | 532 kts | 135° |
| 2026-02-17 05:45 | 39.64710 | 19.24677 | 34483 ft | 533 kts | 135° |
| 2026-02-17 05:45 | 39.59756 | 19.31851 | 34495 ft | 534 kts | 135° |
| 2026-02-17 05:46 | 39.54819 | 19.38985 | 34493 ft | 535 kts | 135° |
| 2026-02-17 05:47 | 39.47318 | 19.49789 | 34515 ft | 537 kts | 135° |
| 2026-02-17 05:47 | 39.39849 | 19.60512 | 34500 ft | 536 kts | 135° |
| 2026-02-17 05:48 | 39.34850 | 19.67667 | 34493 ft | 533 kts | 136° |
| 2026-02-17 05:48 | 39.29878 | 19.74766 | 34510 ft | 537 kts | 136° |
| 2026-02-17 05:49 | 39.24885 | 19.81881 | 34498 ft | 534 kts | 136° |
| 2026-02-17 05:49 | 39.19870 | 19.89009 | 34493 ft | 536 kts | 136° |
| 2026-02-17 05:50 | 39.14875 | 19.96094 | 34464 ft | 536 kts | 136° |
| 2026-02-17 05:51 | 39.07315 | 20.06785 | 34510 ft | 537 kts | 136° |
| 2026-02-17 05:51 | 39.02305 | 20.13850 | 34524 ft | 538 kts | 136° |
| 2026-02-17 05:52 | 38.97251 | 20.20960 | 34524 ft | 538 kts | 136° |
| 2026-02-17 05:52 | 38.92223 | 20.28017 | 34530 ft | 540 kts | 136° |
| 2026-02-17 05:53 | 38.87156 | 20.35116 | 34530 ft | 536 kts | 136° |
| 2026-02-17 05:53 | 38.82075 | 20.42212 | 34648 ft | 548 kts | 136° |
| 2026-02-17 05:53 | 38.79498 | 20.45808 | 35296 ft | 546 kts | 136° |
| 2026-02-17 05:54 | 38.76963 | 20.49341 | 36111 ft | 541 kts | 135° |
| 2026-02-17 05:54 | 38.74426 | 20.52872 | 36484 ft | 546 kts | 136° |
| 2026-02-17 05:54 | 38.71869 | 20.56426 | 36542 ft | 547 kts | 136° |
| 2026-02-17 05:55 | 38.64188 | 20.67083 | 36554 ft | 547 kts | 136° |
| 2026-02-17 05:55 | 38.59036 | 20.74210 | 36544 ft | 544 kts | 136° |
| 2026-02-17 05:56 | 38.53896 | 20.81302 | 36564 ft | 545 kts | 136° |
| 2026-02-17 05:56 | 38.48746 | 20.88395 | 36524 ft | 543 kts | 136° |
| 2026-02-17 05:57 | 38.43640 | 20.95408 | 36569 ft | 546 kts | 136° |
| 2026-02-17 05:57 | 38.38465 | 21.02502 | 36568 ft | 545 kts | 137° |
| 2026-02-17 05:58 | 38.33337 | 21.09518 | 36607 ft | 540 kts | 136° |
| 2026-02-17 05:59 | 38.25602 | 21.20066 | 36627 ft | 542 kts | 137° |
| 2026-02-17 05:59 | 38.20430 | 21.27098 | 36648 ft | 548 kts | 136° |
| 2026-02-17 06:00 | 38.15286 | 21.34082 | 36701 ft | 543 kts | 136° |
| 2026-02-17 06:00 | 38.10078 | 21.41130 | 36641 ft | 547 kts | 136° |
| 2026-02-17 06:01 | 38.04904 | 21.48123 | 36632 ft | 546 kts | 137° |
| 2026-02-17 06:01 | 37.99699 | 21.55140 | 36648 ft | 543 kts | 137° |
| 2026-02-17 06:02 | 37.94511 | 21.62116 | 36647 ft | 545 kts | 136° |
| 2026-02-17 06:02 | 37.89325 | 21.69076 | 36647 ft | 546 kts | 137° |
| 2026-02-17 06:03 | 37.81517 | 21.79527 | 36613 ft | 548 kts | 137° |
| 2026-02-17 06:03 | 37.76224 | 21.86590 | 36618 ft | 549 kts | 137° |
| 2026-02-17 06:04 | 37.71006 | 21.93540 | 36611 ft | 547 kts | 137° |
| 2026-02-17 06:04 | 37.65781 | 22.00484 | 36633 ft | 548 kts | 137° |
| 2026-02-17 06:05 | 37.60513 | 22.07469 | 36618 ft | 547 kts | 138° |
| 2026-02-17 06:05 | 37.55255 | 22.14426 | 36619 ft | 545 kts | 138° |
| 2026-02-17 06:06 | 37.50024 | 22.21329 | 36647 ft | 550 kts | 137° |
| 2026-02-17 06:07 | 37.42234 | 22.31863 | 36599 ft | 547 kts | 130° |
| 2026-02-17 06:07 | 37.38430 | 22.40211 | 36626 ft | 557 kts | 112° |
| 2026-02-17 06:08 | 37.35796 | 22.49335 | 36674 ft | 558 kts | 109° |
| 2026-02-17 06:08 | 37.33204 | 22.58436 | 36639 ft | 554 kts | 110° |
| 2026-02-17 06:09 | 37.30561 | 22.67593 | 36680 ft | 557 kts | 111° |
| 2026-02-17 06:09 | 37.27923 | 22.76650 | 36618 ft | 549 kts | 111° |
| 2026-02-17 06:10 | 37.25292 | 22.85629 | 36616 ft | 549 kts | 111° |
| 2026-02-17 06:10 | 37.22619 | 22.94700 | 36660 ft | 556 kts | 112° |
| 2026-02-17 06:11 | 37.18613 | 23.08227 | 36640 ft | 556 kts | 111° |
| 2026-02-17 06:11 | 37.15945 | 23.17197 | 36674 ft | 551 kts | 111° |
| 2026-02-17 06:12 | 37.13260 | 23.26188 | 36615 ft | 554 kts | 111° |
| 2026-02-17 06:12 | 37.10560 | 23.35195 | 36611 ft | 548 kts | 112° |
| 2026-02-17 06:13 | 37.07887 | 23.44075 | 36690 ft | 548 kts | 112° |
| 2026-02-17 06:13 | 37.05187 | 23.53013 | 36631 ft | 544 kts | 111° |
| 2026-02-17 06:14 | 37.02517 | 23.61826 | 36529 ft | 542 kts | 111° |
| 2026-02-17 06:14 | 37.01189 | 23.66200 | 36721 ft | 546 kts | 112° |
| 2026-02-17 06:15 | 36.98489 | 23.75069 | 36623 ft | 540 kts | 112° |
| 2026-02-17 06:15 | 36.97151 | 23.79456 | 36807 ft | 541 kts | 112° |
| 2026-02-17 06:15 | 36.95808 | 23.83851 | 36655 ft | 537 kts | 112° |
| 2026-02-17 06:16 | 36.93142 | 23.92553 | 36702 ft | 542 kts | 112° |
| 2026-02-17 06:16 | 36.90453 | 24.01308 | 36682 ft | 540 kts | 112° |
| 2026-02-17 06:17 | 36.86417 | 24.14410 | 36714 ft | 539 kts | 112° |
| 2026-02-17 06:17 | 36.83730 | 24.23099 | 36639 ft | 534 kts | 112° |
| 2026-02-17 06:18 | 36.81048 | 24.31744 | 36673 ft | 539 kts | 112° |
| 2026-02-17 06:19 | 36.76991 | 24.44777 | 36702 ft | 538 kts | 113° |
| 2026-02-17 06:19 | 36.73750 | 24.53127 | 36673 ft | 535 kts | 126° |
| 2026-02-17 06:20 | 36.69236 | 24.60411 | 36738 ft | 531 kts | 132° |
| 2026-02-17 06:20 | 36.64594 | 24.67544 | 36714 ft | 531 kts | 133° |
| 2026-02-17 06:21 | 36.59943 | 24.74670 | 36725 ft | 529 kts | 133° |
| 2026-02-17 06:21 | 36.55301 | 24.81766 | 36727 ft | 531 kts | 133° |
| 2026-02-17 06:22 | 36.50638 | 24.88877 | 36756 ft | 530 kts | 133° |
| 2026-02-17 06:22 | 36.45985 | 24.95959 | 36736 ft | 528 kts | 133° |
| 2026-02-17 06:23 | 36.38987 | 25.06580 | 36721 ft | 528 kts | 133° |
| 2026-02-17 06:23 | 36.34359 | 25.13586 | 36789 ft | 525 kts | 133° |
| 2026-02-17 06:24 | 36.29703 | 25.20618 | 36784 ft | 529 kts | 133° |
| 2026-02-17 06:24 | 36.25053 | 25.27628 | 36722 ft | 526 kts | 133° |
| 2026-02-17 06:25 | 36.20383 | 25.34652 | 36750 ft | 530 kts | 133° |
| 2026-02-17 06:25 | 36.15719 | 25.41656 | 36728 ft | 526 kts | 134° |
| 2026-02-17 06:26 | 36.11082 | 25.48603 | 36803 ft | 525 kts | 134° |
| 2026-02-17 06:27 | 36.04067 | 25.59086 | 36775 ft | 524 kts | 134° |
| 2026-02-17 06:27 | 35.99413 | 25.66021 | 36807 ft | 527 kts | 134° |
| 2026-02-17 06:28 | 35.94772 | 25.72927 | 36774 ft | 523 kts | 134° |
| 2026-02-17 06:28 | 35.90098 | 25.79864 | 36763 ft | 523 kts | 134° |
| 2026-02-17 06:29 | 35.85418 | 25.86796 | 36748 ft | 528 kts | 134° |
| 2026-02-17 06:29 | 35.80760 | 25.93685 | 36780 ft | 522 kts | 134° |
| 2026-02-17 06:30 | 35.76119 | 26.00532 | 36777 ft | 524 kts | 134° |
| 2026-02-17 06:30 | 35.71438 | 26.07424 | 36744 ft | 523 kts | 135° |
| 2026-02-17 06:31 | 35.64459 | 26.17675 | 36806 ft | 521 kts | 134° |
| 2026-02-17 06:31 | 35.59810 | 26.24487 | 36806 ft | 521 kts | 135° |
| 2026-02-17 06:32 | 35.55161 | 26.31284 | 36816 ft | 522 kts | 135° |
| 2026-02-17 06:32 | 35.50510 | 26.38072 | 36806 ft | 519 kts | 135° |
| 2026-02-17 06:33 | 35.45859 | 26.44847 | 36812 ft | 520 kts | 135° |
| 2026-02-17 06:33 | 35.41178 | 26.51651 | 36810 ft | 520 kts | 135° |
| 2026-02-17 06:34 | 35.36528 | 26.58397 | 36838 ft | 518 kts | 135° |
| 2026-02-17 06:35 | 35.29538 | 26.68514 | 36810 ft | 518 kts | 136° |
| 2026-02-17 06:35 | 35.24882 | 26.75236 | 36827 ft | 517 kts | 136° |
| 2026-02-17 06:36 | 35.20234 | 26.81931 | 36813 ft | 516 kts | 136° |
| 2026-02-17 06:36 | 35.15562 | 26.88649 | 36819 ft | 519 kts | 136° |
| 2026-02-17 06:37 | 35.10945 | 26.95279 | 36809 ft | 514 kts | 136° |
| 2026-02-17 06:37 | 35.06261 | 27.01986 | 36823 ft | 518 kts | 136° |
| 2026-02-17 06:38 | 35.01621 | 27.08623 | 36887 ft | 516 kts | 136° |
| 2026-02-17 06:38 | 34.96972 | 27.15256 | 36823 ft | 515 kts | 136° |
| 2026-02-17 06:39 | 34.90006 | 27.25174 | 36880 ft | 515 kts | 136° |
| 2026-02-17 06:39 | 34.85356 | 27.31780 | 36849 ft | 512 kts | 136° |
| 2026-02-17 06:40 | 34.80697 | 27.38381 | 36824 ft | 515 kts | 137° |
| 2026-02-17 06:40 | 34.76035 | 27.44978 | 36873 ft | 516 kts | 136° |
| 2026-02-17 06:41 | 34.71389 | 27.51541 | 36861 ft | 513 kts | 137° |
| 2026-02-17 06:41 | 34.66710 | 27.58136 | 37010 ft | 513 kts | 137° |
| 2026-02-17 06:42 | 34.64404 | 27.61382 | 36883 ft | 511 kts | 137° |
| 2026-02-17 06:42 | 34.62074 | 27.64661 | 36881 ft | 509 kts | 137° |
| 2026-02-17 06:43 | 34.55168 | 27.74399 | 36867 ft | 512 kts | 135° |
| 2026-02-17 06:43 | 34.51573 | 27.81963 | 36874 ft | 527 kts | 119° |
| 2026-02-17 06:44 | 34.48770 | 27.90138 | 36870 ft | 525 kts | 118° |
| 2026-02-17 06:44 | 34.45954 | 27.98322 | 36890 ft | 525 kts | 118° |
| 2026-02-17 06:45 | 34.43143 | 28.06428 | 36889 ft | 525 kts | 119° |
| 2026-02-17 06:45 | 34.40311 | 28.14544 | 36882 ft | 523 kts | 119° |
| 2026-02-17 06:46 | 34.37466 | 28.22659 | 36891 ft | 524 kts | 119° |
| 2026-02-17 06:46 | 34.34603 | 28.30796 | 36900 ft | 525 kts | 120° |
| 2026-02-17 06:47 | 34.30340 | 28.42872 | 36911 ft | 523 kts | 120° |
| 2026-02-17 06:47 | 34.27455 | 28.51005 | 36905 ft | 525 kts | 120° |
| 2026-02-17 06:48 | 34.24599 | 28.59046 | 36906 ft | 524 kts | 120° |
| 2026-02-17 06:48 | 34.21713 | 28.67149 | 36906 ft | 524 kts | 121° |
| 2026-02-17 06:49 | 34.18843 | 28.75185 | 36898 ft | 522 kts | 122° |
| 2026-02-17 06:49 | 34.15975 | 28.83199 | 36899 ft | 518 kts | 122° |
| 2026-02-17 06:50 | 34.13122 | 28.91143 | 36911 ft | 521 kts | 122° |
| 2026-02-17 06:51 | 34.08798 | 29.03148 | 36897 ft | 522 kts | 122° |
| 2026-02-17 06:51 | 34.05903 | 29.11167 | 36901 ft | 519 kts | 122° |
| 2026-02-17 06:52 | 34.03015 | 29.19134 | 36910 ft | 525 kts | 122° |
| 2026-02-17 06:52 | 34.00090 | 29.27198 | 36913 ft | 520 kts | 123° |
| 2026-02-17 06:53 | 33.97188 | 29.35170 | 36914 ft | 525 kts | 123° |
| 2026-02-17 06:53 | 33.94253 | 29.43220 | 36778 ft | 521 kts | 123° |
| 2026-02-17 06:53 | 33.92804 | 29.47182 | 37016 ft | 525 kts | 123° |
| 2026-02-17 06:54 | 33.91333 | 29.51200 | 36916 ft | 524 kts | 123° |
| 2026-02-17 06:54 | 33.88415 | 29.59167 | 36926 ft | 521 kts | 123° |
| 2026-02-17 06:55 | 33.84023 | 29.71106 | 36962 ft | 524 kts | 124° |
| 2026-02-17 06:55 | 33.82537 | 29.75143 | 36773 ft | 521 kts | 124° |
| 2026-02-17 06:55 | 33.81077 | 29.79100 | 36866 ft | 521 kts | 124° |
| 2026-02-17 06:56 | 33.78116 | 29.87102 | 36841 ft | 523 kts | 124° |
| 2026-02-17 06:56 | 33.75178 | 29.95034 | 36929 ft | 524 kts | 124° |
| 2026-02-17 06:57 | 33.72233 | 30.03051 | 36956 ft | 526 kts | 123° |
| 2026-02-17 06:57 | 33.70841 | 30.07087 | 36837 ft | 525 kts | 123° |
| 2026-02-17 06:57 | 33.69440 | 30.11153 | 36979 ft | 529 kts | 123° |
| 2026-02-17 06:58 | 33.66627 | 30.19289 | 36932 ft | 527 kts | 123° |
| 2026-02-17 06:59 | 33.62405 | 30.31428 | 36964 ft | 530 kts | 123° |
| 2026-02-17 06:59 | 33.59589 | 30.39500 | 36946 ft | 529 kts | 123° |
| 2026-02-17 07:00 | 33.56737 | 30.47640 | 36961 ft | 528 kts | 124° |
| 2026-02-17 07:00 | 33.53906 | 30.55703 | 36962 ft | 529 kts | 124° |
| 2026-02-17 07:01 | 33.51044 | 30.63829 | 36967 ft | 529 kts | 124° |
| 2026-02-17 07:01 | 33.48192 | 30.71914 | 36952 ft | 526 kts | 124° |
| 2026-02-17 07:02 | 33.45343 | 30.79954 | 36952 ft | 530 kts | 124° |
| 2026-02-17 07:02 | 33.42469 | 30.88054 | 36951 ft | 528 kts | 124° |
| 2026-02-17 07:03 | 33.39240 | 30.95828 | 36953 ft | 512 kts | 136° |
| 2026-02-17 07:03 | 33.37162 | 30.99181 | 36945 ft | 504 kts | 141° |
| 2026-02-17 07:03 | 33.32851 | 31.05694 | 36960 ft | 496 kts | 141° |
| 2026-02-17 07:04 | 33.28540 | 31.12150 | 36967 ft | 498 kts | 142° |
| 2026-02-17 07:04 | 33.24263 | 31.18544 | 36952 ft | 496 kts | 142° |
| 2026-02-17 07:05 | 33.19959 | 31.24964 | 36952 ft | 492 kts | 142° |
| 2026-02-17 07:05 | 33.15620 | 31.31413 | 36967 ft | 500 kts | 142° |
| 2026-02-17 07:06 | 33.11292 | 31.37849 | 36953 ft | 495 kts | 142° |
| 2026-02-17 07:07 | 33.04818 | 31.47442 | 36968 ft | 494 kts | 142° |
| 2026-02-17 07:07 | 33.00483 | 31.53848 | 36985 ft | 498 kts | 142° |
| 2026-02-17 07:08 | 32.96193 | 31.60192 | 36981 ft | 491 kts | 143° |
| 2026-02-17 07:08 | 32.91873 | 31.66548 | 36977 ft | 495 kts | 143° |
| 2026-02-17 07:09 | 32.87569 | 31.72885 | 36985 ft | 492 kts | 144° |
| 2026-02-17 07:09 | 32.83260 | 31.79211 | 36996 ft | 492 kts | 144° |
| 2026-02-17 07:10 | 32.78942 | 31.85536 | 36987 ft | 495 kts | 143° |
| 2026-02-17 07:10 | 32.74636 | 31.91845 | 36995 ft | 492 kts | 144° |
| 2026-02-17 07:11 | 32.68111 | 32.01377 | 37004 ft | 488 kts | 144° |
| 2026-02-17 07:11 | 32.63759 | 32.07479 | 37014 ft | 484 kts | 150° |
| 2026-02-17 07:12 | 32.58556 | 32.12367 | 37008 ft | 466 kts | 159° |
| 2026-02-17 07:12 | 32.53382 | 32.16791 | 37002 ft | 454 kts | 159° |
| 2026-02-17 07:13 | 32.48254 | 32.21143 | 37009 ft | 457 kts | 159° |
| 2026-02-17 07:13 | 32.43045 | 32.25552 | 37003 ft | 462 kts | 159° |
| 2026-02-17 07:14 | 32.37862 | 32.29946 | 37012 ft | 458 kts | 159° |
| 2026-02-17 07:15 | 32.30091 | 32.36514 | 37002 ft | 454 kts | 160° |
| 2026-02-17 07:15 | 32.24903 | 32.40883 | 37008 ft | 457 kts | 160° |
| 2026-02-17 07:16 | 32.19715 | 32.45249 | 37008 ft | 458 kts | 160° |
| 2026-02-17 07:16 | 32.14550 | 32.49593 | 37007 ft | 456 kts | 160° |
| 2026-02-17 07:17 | 32.09381 | 32.53927 | 37028 ft | 456 kts | 160° |
| 2026-02-17 07:17 | 32.04206 | 32.58267 | 37022 ft | 452 kts | 160° |
| 2026-02-17 07:18 | 31.99031 | 32.62587 | 37013 ft | 457 kts | 160° |
| 2026-02-17 07:18 | 31.93830 | 32.66931 | 36995 ft | 457 kts | 161° |
| 2026-02-17 07:19 | 31.86117 | 32.73360 | 37028 ft | 459 kts | 161° |
| 2026-02-17 07:19 | 31.80924 | 32.77689 | 37014 ft | 452 kts | 161° |
| 2026-02-17 07:20 | 31.75781 | 32.81961 | 37018 ft | 457 kts | 161° |
| 2026-02-17 07:20 | 31.70610 | 32.86251 | 37026 ft | 456 kts | 161° |
| 2026-02-17 07:21 | 31.65415 | 32.90560 | 37009 ft | 453 kts | 161° |
| 2026-02-17 07:21 | 31.60261 | 32.94822 | 37025 ft | 457 kts | 161° |
| 2026-02-17 07:22 | 31.55079 | 32.99108 | 37026 ft | 453 kts | 161° |
| 2026-02-17 07:23 | 31.47313 | 33.05513 | 37027 ft | 457 kts | 161° |
| 2026-02-17 07:23 | 31.39535 | 33.11922 | 37027 ft | 454 kts | 161° |
| 2026-02-17 07:24 | 31.34260 | 33.15805 | 37031 ft | 440 kts | 167° |
| 2026-02-17 07:24 | 31.28868 | 33.19213 | 37028 ft | 441 kts | 167° |
| 2026-02-17 07:25 | 31.23403 | 33.22653 | 37034 ft | 447 kts | 166° |
| 2026-02-17 07:25 | 31.17986 | 33.26072 | 37018 ft | 444 kts | 167° |
| 2026-02-17 07:26 | 31.12527 | 33.29509 | 37037 ft | 441 kts | 167° |
| 2026-02-17 07:27 | 31.04381 | 33.34628 | 37027 ft | 440 kts | 167° |
| 2026-02-17 07:27 | 30.98975 | 33.38016 | 37035 ft | 443 kts | 166° |
| 2026-02-17 07:28 | 30.93529 | 33.41429 | 37029 ft | 443 kts | 167° |
| 2026-02-17 07:28 | 30.88074 | 33.44841 | 37059 ft | 442 kts | 166° |
| 2026-02-17 07:29 | 30.82624 | 33.48244 | 37055 ft | 446 kts | 166° |
| 2026-02-17 07:29 | 30.77171 | 33.51649 | 37064 ft | 447 kts | 166° |
| 2026-02-17 07:30 | 30.71711 | 33.55053 | 37065 ft | 446 kts | 166° |
| 2026-02-17 07:30 | 30.66243 | 33.58460 | 37065 ft | 442 kts | 166° |
| 2026-02-17 07:31 | 30.58095 | 33.63522 | 37060 ft | 444 kts | 166° |
| 2026-02-17 07:31 | 30.52632 | 33.66909 | 37033 ft | 446 kts | 166° |
| 2026-02-17 07:32 | 30.47170 | 33.70298 | 37039 ft | 442 kts | 166° |
| 2026-02-17 07:32 | 30.41707 | 33.73675 | 37039 ft | 448 kts | 166° |
| 2026-02-17 07:33 | 30.36227 | 33.77065 | 37035 ft | 443 kts | 166° |
| 2026-02-17 07:33 | 30.30799 | 33.80413 | 37042 ft | 447 kts | 166° |
| 2026-02-17 07:34 | 30.25340 | 33.83781 | 37039 ft | 443 kts | 165° |
| 2026-02-17 07:35 | 30.17143 | 33.88822 | 37049 ft | 450 kts | 165° |
| 2026-02-17 07:35 | 30.11663 | 33.92194 | 37039 ft | 446 kts | 165° |
| 2026-02-17 07:36 | 30.06147 | 33.95580 | 37036 ft | 445 kts | 165° |
| 2026-02-17 07:36 | 30.00690 | 33.98926 | 37034 ft | 446 kts | 165° |
| 2026-02-17 07:37 | 29.95208 | 34.02282 | 37033 ft | 445 kts | 165° |
| 2026-02-17 07:37 | 29.89713 | 34.05641 | 37033 ft | 447 kts | 165° |
| 2026-02-17 07:38 | 29.84233 | 34.08987 | 37059 ft | 448 kts | 165° |
| 2026-02-17 07:38 | 29.78696 | 34.12367 | 37066 ft | 445 kts | 164° |
| 2026-02-17 07:39 | 29.70496 | 34.17477 | 37060 ft | 457 kts | 159° |
| 2026-02-17 07:39 | 29.65639 | 34.22394 | 37075 ft | 483 kts | 142° |
| 2026-02-17 07:40 | 29.63595 | 34.25591 | 37077 ft | 505 kts | 133° |
| 2026-02-17 07:40 | 29.61949 | 34.29184 | 37066 ft | 517 kts | 124° |
| 2026-02-17 07:40 | 29.60778 | 34.33107 | 37073 ft | 530 kts | 114° |
| 2026-02-17 07:40 | 29.60128 | 34.37335 | 37073 ft | 548 kts | 103° |
| 2026-02-17 07:41 | 29.60045 | 34.41765 | 37086 ft | 563 kts | 96° |
| 2026-02-17 07:41 | 29.60152 | 34.46312 | 37075 ft | 560 kts | 99° |
| 2026-02-17 07:41 | 29.59875 | 34.50628 | 37075 ft | 541 kts | 108° |
| 2026-02-17 07:41 | 29.59101 | 34.54808 | 37083 ft | 529 kts | 116° |
| 2026-02-17 07:42 | 29.56147 | 34.62362 | 37076 ft | 507 kts | 133° |
| 2026-02-17 07:42 | 29.54107 | 34.65588 | 37079 ft | 488 kts | 142° |
| 2026-02-17 07:43 | 29.49491 | 34.71070 | 37060 ft | 482 kts | 142° |
| 2026-02-17 07:43 | 29.47473 | 34.74213 | 37048 ft | 495 kts | 133° |
| 2026-02-17 07:43 | 29.45845 | 34.77757 | 37048 ft | 512 kts | 123° |
| 2026-02-17 07:43 | 29.44647 | 34.81667 | 37040 ft | 524 kts | 115° |
| 2026-02-17 07:44 | 29.43763 | 34.85741 | 37044 ft | 531 kts | 112° |
| 2026-02-17 07:44 | 29.42389 | 34.94094 | 37043 ft | 542 kts | 103° |
| 2026-02-17 07:45 | 29.42710 | 35.02813 | 37043 ft | 555 kts | 85° |
| 2026-02-17 07:45 | 29.44662 | 35.11532 | 37069 ft | 568 kts | 79° |
| 2026-02-17 07:46 | 29.46738 | 35.20172 | 37054 ft | 563 kts | 79° |
| 2026-02-17 07:46 | 29.48803 | 35.28893 | 37058 ft | 564 kts | 80° |
| 2026-02-17 07:47 | 29.51849 | 35.41904 | 37072 ft | 563 kts | 80° |
| 2026-02-17 07:47 | 29.53870 | 35.50588 | 37084 ft | 563 kts | 79° |
| 2026-02-17 07:48 | 29.55933 | 35.59248 | 37087 ft | 563 kts | 79° |
| 2026-02-17 07:48 | 29.57991 | 35.67916 | 37060 ft | 563 kts | 80° |
| 2026-02-17 07:49 | 29.60038 | 35.76573 | 37067 ft | 565 kts | 79° |
| 2026-02-17 07:49 | 29.61951 | 35.85238 | 37063 ft | 557 kts | 84° |
| 2026-02-17 07:50 | 29.63340 | 35.94036 | 37075 ft | 561 kts | 85° |
| 2026-02-17 07:51 | 29.65429 | 36.07249 | 37063 ft | 559 kts | 85° |
| 2026-02-17 07:51 | 29.66829 | 36.16013 | 37079 ft | 557 kts | 85° |
| 2026-02-17 07:52 | 29.68232 | 36.24794 | 37072 ft | 562 kts | 84° |
| 2026-02-17 07:52 | 29.69635 | 36.33564 | 37081 ft | 556 kts | 84° |
| 2026-02-17 07:53 | 29.71030 | 36.42256 | 37086 ft | 562 kts | 84° |
| 2026-02-17 07:53 | 29.72454 | 36.51033 | 37090 ft | 555 kts | 84° |
| 2026-02-17 07:54 | 29.74482 | 36.64247 | 37091 ft | 555 kts | 90° |
| 2026-02-17 07:54 | 29.74607 | 36.68590 | 37082 ft | 542 kts | 99° |
| 2026-02-17 07:55 | 29.73475 | 36.77007 | 37089 ft | 532 kts | 110° |
| 2026-02-17 07:55 | 29.71856 | 36.85324 | 37090 ft | 529 kts | 111° |
| 2026-02-17 07:56 | 29.70228 | 36.93562 | 37098 ft | 530 kts | 110° |
| 2026-02-17 07:56 | 29.68589 | 37.01795 | 37102 ft | 529 kts | 110° |
| 2026-02-17 07:57 | 29.66936 | 37.10043 | 37102 ft | 530 kts | 110° |
| 2026-02-17 07:57 | 29.65294 | 37.18211 | 37101 ft | 527 kts | 110° |
| 2026-02-17 07:58 | 29.63624 | 37.26474 | 37102 ft | 530 kts | 110° |
| 2026-02-17 07:58 | 29.61958 | 37.34691 | 37107 ft | 528 kts | 110° |
| 2026-02-17 07:59 | 29.59455 | 37.46984 | 37111 ft | 528 kts | 110° |
| 2026-02-17 07:59 | 29.57776 | 37.55189 | 37104 ft | 528 kts | 110° |
| 2026-02-17 08:00 | 29.56095 | 37.63373 | 37092 ft | 531 kts | 110° |
| 2026-02-17 08:00 | 29.54400 | 37.71613 | 37074 ft | 527 kts | 110° |
| 2026-02-17 08:01 | 29.52713 | 37.79773 | 37064 ft | 529 kts | 110° |
| 2026-02-17 08:01 | 29.51018 | 37.87954 | 37049 ft | 526 kts | 110° |
| 2026-02-17 08:02 | 29.49310 | 37.96160 | 37048 ft | 528 kts | 110° |
| 2026-02-17 08:03 | 29.46987 | 38.08492 | 37053 ft | 531 kts | 107° |
| 2026-02-17 08:03 | 29.45547 | 38.16724 | 37059 ft | 530 kts | 108° |
| 2026-02-17 08:04 | 29.44080 | 38.25028 | 37051 ft | 529 kts | 107° |
| 2026-02-17 08:04 | 29.42615 | 38.33266 | 37056 ft | 528 kts | 107° |
| 2026-02-17 08:05 | 29.41141 | 38.41494 | 37055 ft | 531 kts | 107° |
| 2026-02-17 08:05 | 29.39664 | 38.49715 | 37061 ft | 527 kts | 107° |
| 2026-02-17 08:06 | 29.38172 | 38.57975 | 37059 ft | 528 kts | 107° |
| 2026-02-17 08:06 | 29.36685 | 38.66172 | 37060 ft | 531 kts | 108° |
| 2026-02-17 08:07 | 29.34439 | 38.78506 | 37064 ft | 529 kts | 107° |
| 2026-02-17 08:07 | 29.32923 | 38.86787 | 37047 ft | 528 kts | 107° |
| 2026-02-17 08:08 | 29.31356 | 38.94937 | 37065 ft | 529 kts | 109° |
| 2026-02-17 08:08 | 29.29641 | 39.03075 | 37065 ft | 525 kts | 109° |
| 2026-02-17 08:09 | 29.27926 | 39.11205 | 37064 ft | 527 kts | 108° |
| 2026-02-17 08:09 | 29.26211 | 39.19333 | 37072 ft | 528 kts | 108° |
| 2026-02-17 08:10 | 29.24497 | 39.27450 | 37071 ft | 525 kts | 108° |
| 2026-02-17 08:11 | 29.21911 | 39.39651 | 37085 ft | 528 kts | 108° |
| 2026-02-17 08:11 | 29.20182 | 39.47783 | 37093 ft | 529 kts | 108° |
| 2026-02-17 08:12 | 29.18447 | 39.55925 | 37102 ft | 525 kts | 108° |
| 2026-02-17 08:12 | 29.16713 | 39.64028 | 37103 ft | 526 kts | 108° |
| 2026-02-17 08:13 | 29.14973 | 39.72144 | 37088 ft | 524 kts | 108° |
| 2026-02-17 08:13 | 29.13237 | 39.80206 | 37087 ft | 526 kts | 108° |
| 2026-02-17 08:14 | 29.11484 | 39.88327 | 37086 ft | 525 kts | 108° |
| 2026-02-17 08:14 | 29.09945 | 39.96476 | 37092 ft | 529 kts | 104° |
| 2026-02-17 08:15 | 29.08051 | 40.08884 | 37096 ft | 529 kts | 104° |
| 2026-02-17 08:15 | 29.06767 | 40.17112 | 37093 ft | 529 kts | 104° |
| 2026-02-17 08:16 | 29.05463 | 40.25375 | 37096 ft | 530 kts | 104° |
| 2026-02-17 08:16 | 29.04155 | 40.33588 | 37105 ft | 527 kts | 104° |
| 2026-02-17 08:17 | 29.02836 | 40.41823 | 37108 ft | 528 kts | 104° |
| 2026-02-17 08:17 | 29.01512 | 40.50044 | 37110 ft | 525 kts | 104° |
| 2026-02-17 08:18 | 29.00190 | 40.58205 | 37106 ft | 526 kts | 104° |
| 2026-02-17 08:19 | 28.98191 | 40.70490 | 37100 ft | 524 kts | 104° |
| 2026-02-17 08:19 | 28.96861 | 40.78622 | 37102 ft | 522 kts | 104° |
| 2026-02-17 08:20 | 28.95521 | 40.86772 | 37101 ft | 525 kts | 104° |
| 2026-02-17 08:20 | 28.94179 | 40.94908 | 37102 ft | 521 kts | 104° |
| 2026-02-17 08:21 | 28.92829 | 41.03061 | 37099 ft | 523 kts | 104° |
| 2026-02-17 08:21 | 28.91482 | 41.11165 | 37100 ft | 519 kts | 104° |
| 2026-02-17 08:22 | 28.90131 | 41.19258 | 37103 ft | 520 kts | 103° |
| 2026-02-17 08:22 | 28.88773 | 41.27361 | 37106 ft | 521 kts | 103° |
| 2026-02-17 08:23 | 28.86739 | 41.39449 | 37109 ft | 517 kts | 103° |
| 2026-02-17 08:23 | 28.85367 | 41.47557 | 37109 ft | 521 kts | 103° |
| 2026-02-17 08:24 | 28.84002 | 41.55605 | 37107 ft | 517 kts | 103° |
| 2026-02-17 08:24 | 28.82628 | 41.63665 | 37112 ft | 519 kts | 103° |
| 2026-02-17 08:25 | 28.81257 | 41.71681 | 37107 ft | 516 kts | 103° |
| 2026-02-17 08:25 | 28.79880 | 41.79702 | 37102 ft | 515 kts | 103° |
| 2026-02-17 08:26 | 28.78502 | 41.87700 | 37100 ft | 518 kts | 104° |
| 2026-02-17 08:27 | 28.76420 | 41.99725 | 37111 ft | 517 kts | 103° |
| 2026-02-17 08:27 | 28.75028 | 42.07729 | 37117 ft | 517 kts | 103° |
| 2026-02-17 08:28 | 28.73634 | 42.15718 | 37114 ft | 516 kts | 103° |
| 2026-02-17 08:28 | 28.72229 | 42.23740 | 37109 ft | 516 kts | 103° |
| 2026-02-17 08:29 | 28.70822 | 42.31742 | 37114 ft | 517 kts | 103° |
| 2026-02-17 08:29 | 28.69417 | 42.39708 | 37114 ft | 515 kts | 103° |
| 2026-02-17 08:30 | 28.67992 | 42.47754 | 37113 ft | 517 kts | 103° |
| 2026-02-17 08:30 | 28.66576 | 42.55721 | 37116 ft | 513 kts | 103° |
| 2026-02-17 08:31 | 28.64190 | 42.67595 | 37103 ft | 510 kts | 112° |
| 2026-02-17 08:31 | 28.61140 | 42.74818 | 37108 ft | 508 kts | 120° |
| 2026-02-17 08:32 | 28.57841 | 42.81927 | 37113 ft | 507 kts | 120° |
| 2026-02-17 08:32 | 28.54549 | 42.88982 | 37111 ft | 506 kts | 120° |
| 2026-02-17 08:33 | 28.51223 | 42.96085 | 37120 ft | 508 kts | 120° |
| 2026-02-17 08:33 | 28.47906 | 43.03150 | 37126 ft | 508 kts | 120° |
| 2026-02-17 08:34 | 28.44595 | 43.10188 | 37132 ft | 505 kts | 120° |
| 2026-02-17 08:35 | 28.39569 | 43.20842 | 37138 ft | 507 kts | 120° |
| 2026-02-17 08:35 | 28.36242 | 43.27879 | 37141 ft | 506 kts | 120° |
| 2026-02-17 08:36 | 28.32900 | 43.34935 | 37134 ft | 505 kts | 120° |
| 2026-02-17 08:36 | 28.29542 | 43.42011 | 37130 ft | 507 kts | 120° |
| 2026-02-17 08:37 | 28.26189 | 43.49065 | 37134 ft | 505 kts | 120° |
| 2026-02-17 08:37 | 28.22860 | 43.56057 | 37138 ft | 505 kts | 120° |
| 2026-02-17 08:38 | 28.19537 | 43.63024 | 37135 ft | 504 kts | 120° |
| 2026-02-17 08:38 | 28.16155 | 43.70027 | 37129 ft | 504 kts | 121° |
| 2026-02-17 08:39 | 28.11081 | 43.80499 | 37127 ft | 505 kts | 120° |
| 2026-02-17 08:39 | 28.07677 | 43.87514 | 37129 ft | 506 kts | 120° |
| 2026-02-17 08:40 | 28.04288 | 43.94487 | 37137 ft | 504 kts | 120° |
| 2026-02-17 08:40 | 28.00884 | 44.01479 | 37126 ft | 505 kts | 120° |
| 2026-02-17 08:41 | 27.97506 | 44.08407 | 37133 ft | 505 kts | 120° |
| 2026-02-17 08:41 | 27.94098 | 44.15391 | 37132 ft | 504 kts | 120° |
| 2026-02-17 08:42 | 27.90759 | 44.22358 | 37132 ft | 503 kts | 120° |
| 2026-02-17 08:43 | 27.85765 | 44.32772 | 37136 ft | 504 kts | 120° |
| 2026-02-17 08:43 | 27.82420 | 44.39728 | 37140 ft | 504 kts | 120° |
| 2026-02-17 08:44 | 27.79091 | 44.46639 | 37141 ft | 505 kts | 120° |
| 2026-02-17 08:44 | 27.75729 | 44.53604 | 37133 ft | 504 kts | 120° |
| 2026-02-17 08:45 | 27.72377 | 44.60539 | 37146 ft | 504 kts | 120° |
| 2026-02-17 08:45 | 27.69024 | 44.67462 | 37137 ft | 503 kts | 120° |
| 2026-02-17 08:46 | 27.65714 | 44.74380 | 37132 ft | 503 kts | 116° |
| 2026-02-17 08:46 | 27.63646 | 44.81887 | 37141 ft | 506 kts | 103° |
| 2026-02-17 08:47 | 27.61519 | 44.93497 | 37140 ft | 506 kts | 102° |
| 2026-02-17 08:47 | 27.60093 | 45.01266 | 37138 ft | 506 kts | 102° |
| 2026-02-17 08:48 | 27.58663 | 45.09023 | 37145 ft | 506 kts | 102° |
| 2026-02-17 08:48 | 27.57238 | 45.16723 | 37144 ft | 506 kts | 102° |
| 2026-02-17 08:49 | 27.55802 | 45.24452 | 37145 ft | 506 kts | 102° |
| 2026-02-17 08:49 | 27.54350 | 45.32229 | 37139 ft | 507 kts | 102° |
| 2026-02-17 08:50 | 27.52902 | 45.39952 | 37143 ft | 507 kts | 102° |
| 2026-02-17 08:51 | 27.50705 | 45.51626 | 37152 ft | 508 kts | 102° |
| 2026-02-17 08:51 | 27.49244 | 45.59360 | 37149 ft | 508 kts | 102° |
| 2026-02-17 08:52 | 27.47773 | 45.67118 | 37146 ft | 507 kts | 103° |
| 2026-02-17 08:52 | 27.46301 | 45.74859 | 37138 ft | 507 kts | 103° |
| 2026-02-17 08:53 | 27.44820 | 45.82626 | 37137 ft | 508 kts | 103° |
| 2026-02-17 08:53 | 27.43341 | 45.90353 | 37133 ft | 508 kts | 103° |
| 2026-02-17 08:54 | 27.41851 | 45.98113 | 37145 ft | 510 kts | 103° |
| 2026-02-17 08:54 | 27.40355 | 46.05881 | 37147 ft | 509 kts | 103° |
| 2026-02-17 08:55 | 27.38100 | 46.17547 | 37148 ft | 509 kts | 103° |
| 2026-02-17 08:55 | 27.36589 | 46.25329 | 37147 ft | 508 kts | 103° |
| 2026-02-17 08:56 | 27.35090 | 46.33087 | 37139 ft | 509 kts | 102° |
| 2026-02-17 08:56 | 27.33737 | 46.40863 | 37144 ft | 508 kts | 101° |
| 2026-02-17 08:57 | 27.32388 | 46.48634 | 37153 ft | 508 kts | 101° |
| 2026-02-17 08:57 | 27.31026 | 46.56426 | 37138 ft | 508 kts | 101° |
| 2026-02-17 08:58 | 27.29665 | 46.64168 | 37151 ft | 509 kts | 101° |
| 2026-02-17 08:59 | 27.27604 | 46.75832 | 37147 ft | 509 kts | 102° |
| 2026-02-17 08:59 | 27.26213 | 46.83662 | 37148 ft | 510 kts | 102° |
| 2026-02-17 09:00 | 27.24828 | 46.91428 | 37147 ft | 509 kts | 102° |
| 2026-02-17 09:00 | 27.23436 | 46.99215 | 37145 ft | 509 kts | 102° |
| 2026-02-17 09:01 | 27.22041 | 47.06985 | 37146 ft | 509 kts | 102° |
| 2026-02-17 09:01 | 27.20644 | 47.14743 | 37135 ft | 508 kts | 102° |
| 2026-02-17 09:02 | 27.19244 | 47.22489 | 37123 ft | 507 kts | 102° |
| 2026-02-17 09:02 | 27.17844 | 47.30216 | 37134 ft | 509 kts | 102° |
| 2026-02-17 09:03 | 27.15724 | 47.41862 | 37142 ft | 508 kts | 102° |
| 2026-02-17 09:03 | 27.14309 | 47.49603 | 37144 ft | 506 kts | 102° |
| 2026-02-17 09:04 | 27.12897 | 47.57290 | 37145 ft | 507 kts | 102° |
| 2026-02-17 09:04 | 27.11464 | 47.65034 | 37143 ft | 507 kts | 102° |
| 2026-02-17 09:05 | 27.10031 | 47.72756 | 37138 ft | 506 kts | 102° |
| 2026-02-17 09:05 | 27.08590 | 47.80495 | 37135 ft | 505 kts | 102° |
| 2026-02-17 09:06 | 27.07215 | 47.87855 | 37127 ft | 505 kts | 102° |
| 2026-02-17 09:07 | 27.05014 | 47.99367 | 37118 ft | 504 kts | 104° |
| 2026-02-17 09:07 | 27.03302 | 48.07000 | 37118 ft | 504 kts | 104° |
| 2026-02-17 09:08 | 27.01587 | 48.14634 | 37112 ft | 503 kts | 104° |
| 2026-02-17 09:08 | 26.99877 | 48.22260 | 37107 ft | 505 kts | 104° |
| 2026-02-17 09:09 | 26.98171 | 48.29868 | 37106 ft | 504 kts | 104° |
| 2026-02-17 09:09 | 26.96462 | 48.37477 | 37103 ft | 505 kts | 104° |
| 2026-02-17 09:10 | 26.94751 | 48.45085 | 37102 ft | 506 kts | 104° |
| 2026-02-17 09:10 | 26.93040 | 48.52670 | 37101 ft | 505 kts | 104° |
| 2026-02-17 09:11 | 26.90456 | 48.64095 | 37098 ft | 504 kts | 104° |
| 2026-02-17 09:11 | 26.88722 | 48.71733 | 37088 ft | 505 kts | 105° |
| 2026-02-17 09:12 | 26.87128 | 48.79350 | 37094 ft | 505 kts | 101° |
| 2026-02-17 09:12 | 26.85768 | 48.87052 | 37081 ft | 504 kts | 101° |
| 2026-02-17 09:13 | 26.84401 | 48.94702 | 37076 ft | 505 kts | 102° |
| 2026-02-17 09:13 | 26.83013 | 49.02390 | 37047 ft | 503 kts | 102° |
| 2026-02-17 09:14 | 26.82322 | 49.06198 | 36462 ft | 501 kts | 102° |
| 2026-02-17 09:14 | 26.81622 | 49.10043 | 35492 ft | 505 kts | 101° |
| 2026-02-17 09:14 | 26.80927 | 49.13843 | 34707 ft | 506 kts | 101° |
| 2026-02-17 09:15 | 26.79517 | 49.21541 | 33068 ft | 506 kts | 101° |
| 2026-02-17 09:15 | 26.78806 | 49.25408 | 32376 ft | 503 kts | 101° |
| 2026-02-17 09:15 | 26.78111 | 49.29181 | 31955 ft | 495 kts | 101° |
| 2026-02-17 09:15 | 26.77421 | 49.32919 | 31479 ft | 488 kts | 101° |
| 2026-02-17 09:16 | 26.76744 | 49.36581 | 30975 ft | 483 kts | 101° |
| 2026-02-17 09:16 | 26.75869 | 49.40186 | 30447 ft | 478 kts | 107° |
| 2026-02-17 09:16 | 26.74837 | 49.43688 | 29920 ft | 473 kts | 107° |
| 2026-02-17 09:16 | 26.73798 | 49.47166 | 29395 ft | 468 kts | 107° |
| 2026-02-17 09:17 | 26.72781 | 49.50562 | 28887 ft | 463 kts | 107° |
| 2026-02-17 09:17 | 26.71767 | 49.53950 | 28378 ft | 459 kts | 107° |
| 2026-02-17 09:17 | 26.70758 | 49.57317 | 27901 ft | 455 kts | 107° |
| 2026-02-17 09:17 | 26.69762 | 49.60636 | 27387 ft | 451 kts | 107° |
| 2026-02-17 09:18 | 26.68772 | 49.63937 | 26878 ft | 448 kts | 107° |
| 2026-02-17 09:18 | 26.67784 | 49.67232 | 26362 ft | 445 kts | 107° |
| 2026-02-17 09:18 | 26.66800 | 49.70512 | 25818 ft | 442 kts | 107° |
| 2026-02-17 09:19 | 26.64852 | 49.77005 | 23851 ft | 445 kts | 106° |
| 2026-02-17 09:19 | 26.63877 | 49.80248 | 22667 ft | 445 kts | 106° |
| 2026-02-17 09:19 | 26.62900 | 49.83498 | 21566 ft | 443 kts | 105° |
| 2026-02-17 09:19 | 26.61929 | 49.86720 | 20655 ft | 435 kts | 105° |
| 2026-02-17 09:20 | 26.60981 | 49.89854 | 20008 ft | 421 kts | 105° |
| 2026-02-17 09:20 | 26.60062 | 49.92891 | 19419 ft | 407 kts | 105° |
| 2026-02-17 09:20 | 26.59165 | 49.95858 | 18970 ft | 401 kts | 104° |
| 2026-02-17 09:20 | 26.58277 | 49.98784 | 18389 ft | 402 kts | 104° |
| 2026-02-17 09:21 | 26.57366 | 50.01773 | 17734 ft | 402 kts | 104° |
| 2026-02-17 09:21 | 26.56472 | 50.04710 | 17200 ft | 399 kts | 104° |
| 2026-02-17 09:21 | 26.55586 | 50.07634 | 16654 ft | 397 kts | 104° |
| 2026-02-17 09:21 | 26.54705 | 50.10538 | 16130 ft | 395 kts | 104° |
| 2026-02-17 09:22 | 26.53828 | 50.13428 | 15545 ft | 392 kts | 104° |
| 2026-02-17 09:22 | 26.52962 | 50.16280 | 14983 ft | 389 kts | 104° |
| 2026-02-17 09:22 | 26.52101 | 50.19112 | 14484 ft | 385 kts | 104° |
| 2026-02-17 09:23 | 26.50392 | 50.24725 | 13455 ft | 381 kts | 104° |
| 2026-02-17 09:23 | 26.49540 | 50.27524 | 12908 ft | 379 kts | 104° |
| 2026-02-17 09:23 | 26.48702 | 50.30269 | 12283 ft | 376 kts | 105° |
| 2026-02-17 09:23 | 26.47869 | 50.32998 | 11789 ft | 371 kts | 105° |
| 2026-02-17 09:24 | 26.47042 | 50.35703 | 11315 ft | 367 kts | 105° |
| 2026-02-17 09:24 | 26.46222 | 50.38387 | 10872 ft | 363 kts | 105° |
| 2026-02-17 09:24 | 26.45446 | 50.41015 | 10680 ft | 352 kts | 105° |
| 2026-02-17 09:24 | 26.44705 | 50.43552 | 10568 ft | 338 kts | 104° |
| 2026-02-17 09:25 | 26.43989 | 50.46000 | 10418 ft | 326 kts | 104° |
| 2026-02-17 09:25 | 26.43294 | 50.48372 | 10279 ft | 314 kts | 105° |
| 2026-02-17 09:25 | 26.42626 | 50.50645 | 10178 ft | 302 kts | 104° |
| 2026-02-17 09:25 | 26.41983 | 50.52832 | 10041 ft | 292 kts | 104° |
| 2026-02-17 09:26 | 26.41356 | 50.54968 | 9696 ft | 291 kts | 105° |
| 2026-02-17 09:26 | 26.40723 | 50.57118 | 9329 ft | 291 kts | 105° |
| 2026-02-17 09:26 | 26.40105 | 50.59216 | 9174 ft | 281 kts | 105° |
| 2026-02-17 09:27 | 26.38943 | 50.63146 | 9139 ft | 250 kts | 105° |
| 2026-02-17 09:27 | 26.38415 | 50.64934 | 9054 ft | 239 kts | 105° |
| 2026-02-17 09:27 | 26.37896 | 50.66695 | 8777 ft | 237 kts | 105° |
| 2026-02-17 09:27 | 26.37388 | 50.68417 | 8402 ft | 235 kts | 105° |
| 2026-02-17 09:28 | 26.36881 | 50.70132 | 8024 ft | 232 kts | 105° |
| 2026-02-17 09:28 | 26.36216 | 50.71756 | 7608 ft | 232 kts | 119° |
| 2026-02-17 09:28 | 26.35358 | 50.73275 | 7204 ft | 230 kts | 121° |
| 2026-02-17 09:28 | 26.34504 | 50.74753 | 6921 ft | 225 kts | 121° |
| 2026-02-17 09:29 | 26.33647 | 50.76237 | 6728 ft | 224 kts | 121° |
| 2026-02-17 09:29 | 26.32825 | 50.77662 | 6603 ft | 215 kts | 121° |
| 2026-02-17 09:29 | 26.32031 | 50.79039 | 6503 ft | 205 kts | 121° |
| 2026-02-17 09:29 | 26.31276 | 50.80347 | 6417 ft | 195 kts | 121° |
| 2026-02-17 09:30 | 26.29843 | 50.82834 | 6242 ft | 190 kts | 121° |
| 2026-02-17 09:30 | 26.29142 | 50.84047 | 6069 ft | 188 kts | 121° |
| 2026-02-17 09:31 | 26.27705 | 50.86534 | 5495 ft | 190 kts | 121° |
| 2026-02-17 09:31 | 26.26999 | 50.87758 | 5265 ft | 189 kts | 121° |
| 2026-02-17 09:31 | 26.26286 | 50.88992 | 5006 ft | 189 kts | 121° |
| 2026-02-17 09:31 | 26.25579 | 50.90211 | 4754 ft | 189 kts | 121° |
| 2026-02-17 09:32 | 26.24856 | 50.91457 | 4482 ft | 189 kts | 122° |
| 2026-02-17 09:32 | 26.24153 | 50.92667 | 4238 ft | 188 kts | 122° |
| 2026-02-17 09:32 | 26.23419 | 50.93878 | 3991 ft | 189 kts | 131° |
| 2026-02-17 09:32 | 26.22307 | 50.94633 | 3686 ft | 192 kts | 167° |
| 2026-02-17 09:33 | 26.20977 | 50.94490 | 3370 ft | 195 kts | 205° |
| 2026-02-17 09:33 | 26.19999 | 50.93477 | 3070 ft | 195 kts | 244° |
| 2026-02-17 09:33 | 26.19696 | 50.92019 | 2797 ft | 193 kts | 265° |
| 2026-02-17 09:33 | 26.19577 | 50.90551 | 2595 ft | 190 kts | 266° |
| 2026-02-17 09:34 | 26.19462 | 50.89088 | 2366 ft | 189 kts | 267° |
| 2026-02-17 09:34 | 26.19348 | 50.87641 | 2144 ft | 188 kts | 267° |
| 2026-02-17 09:34 | 26.19235 | 50.86197 | 1930 ft | 186 kts | 268° |
| 2026-02-17 09:35 | 26.19010 | 50.83339 | 1542 ft | 178 kts | 268° |
| 2026-02-17 09:35 | 26.18906 | 50.82013 | 1513 ft | 170 kts | 269° |
| 2026-02-17 09:35 | 26.18803 | 50.80700 | 1511 ft | 169 kts | 269° |
| 2026-02-17 09:35 | 26.18702 | 50.79395 | 1510 ft | 168 kts | 269° |
| 2026-02-17 09:36 | 26.18696 | 50.78107 | 1508 ft | 165 kts | 283° |
| 2026-02-17 09:36 | 26.19136 | 50.76961 | 1512 ft | 162 kts | 305° |
| 2026-02-17 09:36 | 26.19770 | 50.75931 | 1516 ft | 161 kts | 307° |
| 2026-02-17 09:36 | 26.20387 | 50.74888 | 1524 ft | 158 kts | 305° |
| 2026-02-17 09:37 | 26.20985 | 50.73858 | 1507 ft | 157 kts | 305° |
| 2026-02-17 09:37 | 26.21549 | 50.72889 | 1533 ft | 150 kts | 305° |
| 2026-02-17 09:37 | 26.22118 | 50.71913 | 1515 ft | 147 kts | 305° |
| 2026-02-17 09:37 | 26.22666 | 50.70970 | 1324 ft | 141 kts | 305° |
| 2026-02-17 09:38 | 26.23190 | 50.70070 | 1140 ft | 136 kts | 305° |
| 2026-02-17 09:38 | 26.23700 | 50.69191 | 960 ft | 134 kts | 305° |
| 2026-02-17 09:38 | 26.24206 | 50.68321 | 781 ft | 132 kts | 305° |
| 2026-02-17 09:39 | 26.25200 | 50.66599 | 399 ft | 131 kts | 304° |
| 2026-02-17 09:39 | 26.25703 | 50.65760 | 226 ft | 129 kts | 305° |
| 2026-02-17 09:39 | 26.26187 | 50.64913 | 61 ft | 129 kts | 305° |
| 2026-02-17 09:39 | 26.26654 | 50.64115 | 19 ft | 109 kts | 303° |
| 2026-02-17 09:40 | 26.26979 | 50.63549 | 19 ft | 65 kts | 303° |
| 2026-02-17 09:40 | 26.27149 | 50.63255 | 19 ft | 34 kts | 303° |
| 2026-02-17 09:40 | 26.27235 | 50.63098 | 19 ft | 16 kts | 290° |
| 2026-02-17 09:40 | 26.27252 | 50.62974 | 19 ft | 15 kts | 272° |
| 2026-02-17 09:41 | 26.27255 | 50.62856 | 19 ft | 15 kts | 267° |
| 2026-02-17 09:41 | 26.27254 | 50.62742 | 19 ft | 14 kts | 281° |
| 2026-02-17 09:41 | 26.27263 | 50.62676 | 19 ft | 5 kts | 231° |
| 2026-02-17 09:41 | 26.27217 | 50.62640 | 19 ft | 9 kts | 208° |
| 2026-02-17 09:42 | 26.27166 | 50.62659 | 19 ft | 9 kts | 123° |
| 2026-02-17 09:42 | 26.27128 | 50.62724 | 19 ft | 12 kts | 123° |
| 2026-02-17 09:42 | 26.27068 | 50.62828 | 19 ft | 16 kts | 123° |
| 2026-02-17 09:43 | 26.26942 | 50.63044 | 19 ft | 16 kts | 123° |
| 2026-02-17 09:43 | 26.26905 | 50.63138 | 19 ft | 10 kts | 63° |
| 2026-02-17 09:43 | 26.26963 | 50.63173 | 19 ft | 9 kts | 359° |
| 2026-02-17 09:43 | 26.27020 | 50.63114 | 19 ft | 14 kts | 300° |
| 2026-02-17 09:44 | 26.27088 | 50.62995 | 19 ft | 21 kts | 304° |
| 2026-02-17 09:44 | 26.27189 | 50.62848 | 19 ft | 26 kts | 303° |
| 2026-02-17 09:44 | 26.27296 | 50.62658 | 19 ft | 28 kts | 302° |
| 2026-02-17 09:44 | 26.27399 | 50.62480 | 19 ft | 26 kts | 303° |
| 2026-02-17 09:45 | 26.27492 | 50.62318 | 19 ft | 13 kts | 300° |
| 2026-02-17 09:45 | 26.27524 | 50.62258 | 19 ft | 6 kts | 301° |
| 2026-02-17 09:45 | 26.27548 | 50.62215 | 19 ft | 6 kts | 302° |
| 2026-02-17 09:45 | 26.27580 | 50.62162 | 19 ft | 10 kts | 308° |
| 2026-02-17 09:46 | 26.27611 | 50.62096 | 19 ft | 9 kts | 259° |
| 2026-02-17 09:46 | 26.27567 | 50.62044 | 19 ft | 9 kts | 211° |
| 2026-02-17 09:46 | 26.27524 | 50.62046 | 19 ft | 6 kts | 167° |
| 2026-02-17 09:47 | 26.27466 | 50.62022 | 19 ft | 2 kts | 213° |
| 2026-02-17 09:47 | 26.27450 | 50.62011 | 19 ft | 0 kts | 212° |